createdAt,value
2022-11-14T00:01:47.603Z,98051.88
2022-11-14T00:04:36.475Z,98052.22
2022-11-14T00:07:24.911Z,98045.06
2022-11-14T00:10:13.675Z,98044.78
2022-11-14T00:13:02.394Z,98043.03
2022-11-14T00:15:56.811Z,98051.91
2022-11-14T00:18:45.564Z,98057.34
2022-11-14T00:21:34.510Z,98050.63
2022-11-14T00:24:23.734Z,98049.94
2022-11-14T00:27:12.636Z,98054.16
2022-11-14T00:30:01.359Z,98053.22
2022-11-14T00:32:52.638Z,98047.25
2022-11-14T00:35:41.419Z,98051.69
2022-11-14T00:38:30.063Z,98037.03
2022-11-14T00:41:19.241Z,98033.69
2022-11-14T00:44:08.128Z,98024.81
2022-11-14T00:46:56.603Z,98024.25
2022-11-14T00:49:47.922Z,98025.78
2022-11-14T00:52:36.474Z,98025.06
2022-11-14T00:55:25.325Z,98016.66
2022-11-14T00:58:14.127Z,98016.22
2022-11-14T01:01:02.901Z,98018.00
2022-11-14T01:03:52.439Z,98005.97
2022-11-14T01:06:43.536Z,98016.84
2022-11-14T01:09:32.310Z,98014.13
2022-11-14T01:12:21.315Z,98024.00
2022-11-14T01:15:12.479Z,98009.94
2022-11-14T01:18:01.101Z,98010.44
2022-11-14T01:20:51.699Z,98013.88
2022-11-14T01:23:43.987Z,98010.19
2022-11-14T01:26:32.360Z,98005.91
2022-11-14T01:29:21.239Z,98012.97
2022-11-14T01:32:10.693Z,98014.00
2022-11-14T01:34:59.532Z,98005.00
2022-11-14T01:37:48.166Z,98011.06
2022-11-14T01:40:45.698Z,98009.81
2022-11-14T01:43:37.592Z,98007.56
2022-11-14T01:46:31.994Z,98000.34
2022-11-14T01:49:24.621Z,98000.41
2022-11-14T01:52:18.824Z,97996.75
2022-11-14T01:55:12.433Z,97996.44
2022-11-14T01:58:04.218Z,98004.44
2022-11-14T02:00:52.726Z,97994.50
2022-11-14T02:03:45.887Z,97998.75
2022-11-14T02:06:35.559Z,97995.56
2022-11-14T02:09:25.173Z,97986.81
2022-11-14T02:12:17.874Z,97984.69
2022-11-14T02:15:12.024Z,97982.06
2022-11-14T02:18:02.608Z,97984.81
2022-11-14T02:20:53.737Z,97991.25
2022-11-14T02:23:42.480Z,97991.19
2022-11-14T02:26:36.472Z,97986.13
2022-11-14T02:29:26.322Z,97994.31
2022-11-14T02:32:14.897Z,97995.66
2022-11-14T02:35:03.620Z,97989.78
2022-11-14T02:37:54.853Z,97985.72
2022-11-14T02:40:43.453Z,97982.94
2022-11-14T02:43:32.220Z,97988.06
2022-11-14T02:46:20.875Z,97983.72
2022-11-14T02:49:09.508Z,97992.91
2022-11-14T02:51:58.145Z,97993.41
2022-11-14T02:54:54.239Z,98000.16
2022-11-14T02:57:43.603Z,98000.25
2022-11-14T03:00:32.314Z,97992.19
2022-11-14T03:03:21.127Z,97988.91
2022-11-14T03:06:10.055Z,97981.06
2022-11-14T03:08:59.044Z,97960.59
2022-11-14T03:11:50.867Z,97956.31
2022-11-14T03:14:39.910Z,97959.22
2022-11-14T03:17:28.295Z,97948.94
2022-11-14T03:20:17.118Z,97951.31
2022-11-14T03:23:06.557Z,97960.22
2022-11-14T03:25:55.838Z,97955.66
2022-11-14T03:28:47.054Z,97952.91
2022-11-14T03:31:35.939Z,97937.97
2022-11-14T03:34:24.643Z,97943.47
2022-11-14T03:37:13.871Z,97933.38
2022-11-14T03:40:02.665Z,97926.00
2022-11-14T03:42:51.359Z,97946.16
2022-11-14T03:45:42.858Z,97953.22
2022-11-14T03:48:32.649Z,97956.28
2022-11-14T03:51:21.418Z,97966.19
2022-11-14T03:54:10.607Z,97967.75
2022-11-14T03:56:59.466Z,97977.88
2022-11-14T03:59:48.049Z,97978.34
2022-11-14T04:02:39.457Z,97974.38
2022-11-14T04:05:28.621Z,97976.22
2022-11-14T04:08:17.103Z,97982.97
2022-11-14T04:11:06.006Z,97979.69
2022-11-14T04:13:55.115Z,97976.03
2022-11-14T04:16:43.813Z,97967.13
2022-11-14T04:19:35.074Z,97965.34
2022-11-14T04:22:23.916Z,97951.56
2022-11-14T04:25:14.135Z,97949.00
2022-11-14T04:28:02.972Z,97943.66
2022-11-14T04:30:51.375Z,97932.75
2022-11-14T04:33:40.216Z,97933.97
2022-11-14T04:36:31.641Z,97929.81
2022-11-14T04:39:20.173Z,97920.19
2022-11-14T04:42:08.897Z,97925.53
2022-11-14T04:44:57.694Z,97939.97
2022-11-14T04:47:47.185Z,97935.63
2022-11-14T04:50:36.117Z,97922.25
2022-11-14T04:53:27.181Z,97922.50
2022-11-14T04:56:16.033Z,97926.53
2022-11-14T04:59:05.334Z,97922.00
2022-11-14T05:01:54.028Z,97913.53
2022-11-14T05:04:44.443Z,97905.31
2022-11-14T05:07:34.034Z,97895.22
2022-11-14T05:10:25.460Z,97903.31
2022-11-14T05:13:14.286Z,97905.91
2022-11-14T05:16:04.032Z,97900.81
2022-11-14T05:18:55.760Z,97892.22
2022-11-14T05:21:44.240Z,97889.16
2022-11-14T05:24:33.135Z,97900.16
2022-11-14T05:27:24.533Z,97899.00
2022-11-14T05:30:15.646Z,97900.22
2022-11-14T05:33:04.320Z,97889.69
2022-11-14T05:35:52.936Z,97882.25
2022-11-14T05:38:42.248Z,97897.44
2022-11-14T05:41:30.881Z,97900.31
2022-11-14T05:44:22.144Z,97891.88
2022-11-14T05:47:10.885Z,97888.41
2022-11-14T05:49:59.586Z,97886.88
2022-11-14T05:52:48.337Z,97889.38
2022-11-14T05:55:37.026Z,97891.38
2022-11-14T05:58:25.620Z,97898.16
2022-11-14T06:01:20.182Z,97893.97
2022-11-14T06:04:10.328Z,97896.75
2022-11-14T06:06:58.796Z,97899.47
2022-11-14T06:09:47.400Z,97898.41
2022-11-14T06:12:36.093Z,97897.25
2022-11-14T06:15:25.124Z,97893.69
2022-11-14T06:18:16.220Z,97894.50
2022-11-14T06:21:07.598Z,97893.44
2022-11-14T06:23:56.281Z,97896.78
2022-11-14T06:26:44.975Z,97902.44
2022-11-14T06:29:35.656Z,97903.78
2022-11-14T06:32:24.340Z,97906.94
2022-11-14T06:35:15.591Z,97912.59
2022-11-14T06:38:04.157Z,97922.53
2022-11-14T06:40:52.437Z,97921.22
2022-11-14T06:43:42.886Z,97918.97
2022-11-14T06:46:31.532Z,97912.00
2022-11-14T06:49:20.265Z,97909.75
2022-11-14T06:52:11.411Z,97907.78
2022-11-14T06:55:00.373Z,97910.16
2022-11-14T06:57:55.054Z,97916.25
2022-11-14T07:00:43.906Z,97911.84
2022-11-14T07:03:32.758Z,97910.16
2022-11-14T07:06:24.573Z,97910.69
2022-11-14T07:09:15.992Z,97906.91
2022-11-14T07:12:04.948Z,97912.16
2022-11-14T07:14:53.509Z,97923.81
2022-11-14T07:17:42.155Z,97921.72
2022-11-14T07:20:30.850Z,97905.91
2022-11-14T07:23:22.836Z,97906.97
2022-11-14T07:26:15.538Z,97905.00
2022-11-14T07:29:05.375Z,97901.38
2022-11-14T07:31:54.039Z,97905.06
2022-11-14T07:34:42.786Z,97917.91
2022-11-14T07:37:31.476Z,97913.81
2022-11-14T07:40:20.639Z,97905.84
2022-11-14T07:43:11.805Z,97909.28
2022-11-14T07:46:02.749Z,97908.72
2022-11-14T07:48:51.085Z,97922.66
2022-11-14T07:51:40.080Z,97937.03
2022-11-14T07:54:28.829Z,97943.44
2022-11-14T07:57:17.235Z,97946.53
2022-11-14T08:00:11.274Z,97950.63
2022-11-14T08:03:00.685Z,97954.41
2022-11-14T08:05:49.636Z,97964.31
2022-11-14T08:08:39.296Z,97961.63
2022-11-14T08:11:40.261Z,97980.75
2022-11-14T08:14:28.995Z,97989.09
2022-11-14T08:17:20.096Z,97981.97
2022-11-14T08:20:12.095Z,97969.47
2022-11-14T08:23:07.189Z,97975.47
2022-11-14T08:25:56.216Z,97956.38
2022-11-14T08:28:45.203Z,97972.84
2022-11-14T08:31:34.125Z,97966.78
2022-11-14T08:34:25.249Z,97967.91
2022-11-14T08:37:14.235Z,97972.78
2022-11-14T08:40:03.090Z,97977.41
2022-11-14T08:42:51.946Z,97977.19
2022-11-14T08:45:40.360Z,97992.56
2022-11-14T08:48:29.309Z,97998.28
2022-11-14T08:51:20.649Z,98000.72
2022-11-14T08:54:09.401Z,97999.84
2022-11-14T08:56:57.943Z,98001.41
2022-11-14T08:59:46.852Z,98005.19
2022-11-14T09:02:35.528Z,97994.09
2022-11-14T09:05:24.181Z,97997.63
2022-11-14T09:08:15.458Z,97996.00
2022-11-14T09:11:08.409Z,97992.41
2022-11-14T09:13:58.695Z,97991.81
2022-11-14T09:16:47.122Z,97990.19
2022-11-14T09:19:36.210Z,97998.81
2022-11-14T09:22:24.916Z,97985.75
2022-11-14T09:25:16.988Z,97990.53
2022-11-14T09:28:09.364Z,97992.81
2022-11-14T09:31:04.301Z,97983.16
2022-11-14T09:33:52.900Z,97981.94
2022-11-14T09:36:41.807Z,97985.84
2022-11-14T09:39:30.220Z,97988.94
2022-11-14T09:42:57.360Z,97984.72
2022-11-14T09:45:53.724Z,97972.16
2022-11-14T09:48:42.493Z,97972.16
2022-11-14T09:51:36.123Z,97957.69
2022-11-14T09:54:29.238Z,97956.78
2022-11-14T09:57:20.785Z,97967.47
2022-11-14T10:00:22.178Z,97954.84
2022-11-14T10:03:19.378Z,97962.75
2022-11-14T10:06:29.298Z,97952.81
2022-11-14T10:09:42.498Z,97954.72
2022-11-14T10:12:43.910Z,97955.47
2022-11-14T10:15:49.460Z,97943.38
2022-11-14T10:19:02.024Z,97941.88
2022-11-14T10:22:12.584Z,97942.63
2022-11-14T10:25:26.581Z,97946.88
2022-11-14T10:28:42.804Z,97943.03
2022-11-14T10:31:55.539Z,97946.97
2022-11-14T10:34:54.266Z,97949.59
2022-11-14T10:37:55.969Z,97954.03
2022-11-14T10:40:50.230Z,97954.38
2022-11-14T10:43:46.760Z,97951.38
2022-11-14T10:46:45.539Z,97952.59
2022-11-14T10:49:38.845Z,97957.97
2022-11-14T10:52:41.589Z,97962.72
2022-11-14T10:56:02.409Z,97960.88
2022-11-14T10:58:48.308Z,97954.47
2022-11-14T11:01:47.246Z,97951.06
2022-11-14T11:04:37.949Z,97960.72
2022-11-14T11:07:41.625Z,97959.91
2022-11-14T11:10:42.618Z,97953.50
2022-11-14T11:13:37.238Z,97939.72
2022-11-14T11:16:28.290Z,97936.69
2022-11-14T11:19:30.990Z,97926.59
2022-11-14T11:22:37.661Z,97930.28
2022-11-14T11:25:29.851Z,97918.38
2022-11-14T11:28:21.188Z,97920.50
2022-11-14T11:31:12.291Z,97929.47
2022-11-14T11:34:06.746Z,97926.34
2022-11-14T11:37:07.598Z,97920.00
2022-11-14T11:40:00.198Z,97921.78
2022-11-14T11:46:18.049Z,97921.59
2022-11-14T11:49:16.857Z,97923.72
2022-11-14T11:52:16.353Z,97915.34
2022-11-14T11:55:19.554Z,97922.03
2022-11-14T11:58:14.818Z,97916.94
2022-11-14T12:01:03.610Z,97907.97
2022-11-14T12:03:55.793Z,97907.41
2022-11-14T12:06:57.770Z,97900.72
2022-11-14T12:10:09.828Z,97908.78
2022-11-14T12:13:50.470Z,97905.63
2022-11-14T12:17:22.558Z,97911.91
2022-11-14T12:20:41.938Z,97906.81
2022-11-14T12:24:18.478Z,97908.38
2022-11-14T12:27:40.838Z,97899.75
2022-11-14T12:30:30.941Z,97904.25
2022-11-14T12:33:28.459Z,97902.06
2022-11-14T12:36:17.211Z,97902.41
2022-11-14T12:39:06.755Z,97897.88
2022-11-14T12:42:05.317Z,97898.22
2022-11-14T12:44:56.592Z,97892.66
2022-11-14T12:48:24.777Z,97893.06
2022-11-14T12:51:53.314Z,97892.25
2022-11-14T12:54:50.490Z,97890.69
2022-11-14T12:57:52.574Z,97885.47
2022-11-14T13:01:15.267Z,97879.03
2022-11-14T13:04:25.895Z,97881.94
2022-11-14T13:07:36.014Z,97881.00
2022-11-14T13:10:34.275Z,97878.56
2022-11-14T13:13:36.398Z,97883.66
2022-11-14T13:16:46.813Z,97873.03
2022-11-14T13:19:48.626Z,97880.34
2022-11-14T13:22:43.470Z,97878.22
2022-11-14T13:25:32.865Z,97871.13
2022-11-14T13:28:51.469Z,97868.38
2022-11-14T13:31:53.997Z,97868.47
2022-11-14T13:34:52.597Z,97863.28
2022-11-14T13:38:01.882Z,97854.59
2022-11-14T13:41:04.883Z,97851.06
2022-11-14T13:44:31.114Z,97852.59
2022-11-14T13:47:46.420Z,97861.81
2022-11-14T13:50:40.566Z,97857.13
2022-11-14T13:53:33.747Z,97855.72
2022-11-14T13:56:40.891Z,97851.06
2022-11-14T14:00:06.460Z,97858.13
2022-11-14T14:03:34.526Z,97854.25
2022-11-14T14:06:43.368Z,97849.53
2022-11-14T14:09:43.660Z,97852.72
2022-11-14T14:13:00.023Z,97845.16
2022-11-14T14:16:01.612Z,97847.56
2022-11-14T14:19:11.432Z,97849.13
2022-11-14T14:22:13.342Z,97849.94
2022-11-14T14:25:16.466Z,97844.63
2022-11-14T14:28:18.288Z,97842.06
2022-11-14T14:31:19.938Z,97857.88
2022-11-14T14:34:32.529Z,97848.44
2022-11-14T14:37:24.668Z,97842.72
2022-11-14T14:40:28.436Z,97848.78
2022-11-14T14:43:31.491Z,97855.63
2022-11-14T14:46:29.200Z,97853.06
2022-11-14T14:49:24.574Z,97844.75
2022-11-14T14:52:31.879Z,97855.19
2022-11-14T14:55:27.468Z,97850.75
2022-11-14T14:58:22.380Z,97847.72
2022-11-14T15:01:17.728Z,97852.06
2022-11-14T15:04:11.160Z,97849.00
2022-11-14T15:07:00.347Z,97857.69
2022-11-14T15:09:59.777Z,97863.00
2022-11-14T15:12:49.716Z,97859.88
2022-11-14T15:15:40.664Z,97864.03
2022-11-14T15:18:34.399Z,97866.78
2022-11-14T15:21:30.213Z,97869.13
2022-11-14T15:24:21.983Z,97872.63
2022-11-14T15:27:19.300Z,97882.44
2022-11-14T15:30:23.108Z,97883.84
2022-11-14T15:33:31.794Z,97882.44
2022-11-14T15:36:20.591Z,97880.69
2022-11-14T15:39:29.542Z,97879.13
2022-11-14T15:42:30.892Z,97885.78
2022-11-14T15:45:27.206Z,97890.50
2022-11-14T15:48:20.929Z,97884.78
2022-11-14T15:51:09.881Z,97880.91
2022-11-14T15:53:58.496Z,97880.50
2022-11-14T15:56:47.049Z,97886.41
2022-11-14T15:59:38.329Z,97884.00
2022-11-14T16:02:33.697Z,97885.50
2022-11-14T16:05:30.425Z,97890.66
2022-11-14T16:08:19.084Z,97893.88
2022-11-14T16:11:07.840Z,97896.44
2022-11-14T16:13:56.337Z,97895.31
2022-11-14T16:16:47.704Z,97896.31
2022-11-14T16:19:36.400Z,97890.84
2022-11-14T16:22:24.924Z,97890.16
2022-11-14T16:25:19.487Z,97899.56
2022-11-14T16:28:08.287Z,97903.50
2022-11-14T16:30:57.840Z,97898.28
2022-11-14T16:33:49.088Z,97902.31
2022-11-14T16:36:38.039Z,97902.56
2022-11-14T16:39:26.610Z,97902.06
2022-11-14T16:42:15.819Z,97904.97
2022-11-14T16:45:05.096Z,97915.38
2022-11-14T16:47:54.342Z,97917.72
2022-11-14T16:50:45.402Z,97921.47
2022-11-14T16:53:34.087Z,97922.16
2022-11-14T16:56:22.632Z,97926.72
2022-11-14T16:59:12.816Z,97918.84
2022-11-14T17:02:01.918Z,97920.47
2022-11-14T17:04:50.785Z,97916.09
2022-11-14T17:07:42.108Z,97926.88
2022-11-14T17:10:30.784Z,97920.88
2022-11-14T17:13:24.239Z,97933.28
2022-11-14T17:16:13.172Z,97919.72
2022-11-14T17:19:02.096Z,97925.00
2022-11-14T17:21:52.049Z,97929.81
2022-11-14T17:24:44.031Z,97936.31
2022-11-14T17:27:32.546Z,97932.13
2022-11-14T17:30:21.811Z,97937.69
2022-11-14T17:33:10.273Z,97937.84
2022-11-14T17:35:59.043Z,97933.59
2022-11-14T17:38:47.747Z,97940.38
2022-11-14T17:41:39.072Z,97939.25
2022-11-14T17:44:29.770Z,97935.59
2022-11-14T17:47:18.631Z,97935.09
2022-11-14T17:50:07.812Z,97925.41
2022-11-14T17:52:56.500Z,97929.16
2022-11-14T17:55:45.418Z,97935.78
2022-11-14T17:58:36.825Z,97937.00
2022-11-14T18:01:30.310Z,97936.22
2022-11-14T18:04:19.430Z,97937.13
2022-11-14T18:07:08.441Z,97932.94
2022-11-14T18:09:57.589Z,97933.84
2022-11-14T18:12:46.444Z,97934.63
2022-11-14T18:15:41.940Z,97933.50
2022-11-14T18:18:30.545Z,97942.84
2022-11-14T18:21:22.922Z,97937.78
2022-11-14T18:24:16.587Z,97943.63
2022-11-14T18:27:05.363Z,97933.06
2022-11-14T18:29:54.343Z,97921.66
2022-11-14T18:32:45.588Z,97922.72
2022-11-14T18:35:34.331Z,97926.88
2022-11-14T18:38:22.810Z,97924.41
2022-11-14T18:41:15.609Z,97919.34
2022-11-14T18:44:05.376Z,97916.94
2022-11-14T18:46:54.052Z,97918.50
2022-11-14T18:49:45.262Z,97915.34
2022-11-14T18:52:34.004Z,97909.47
2022-11-14T18:55:22.920Z,97906.16
2022-11-14T18:58:11.821Z,97898.56
2022-11-14T19:01:00.695Z,97902.38
2022-11-14T19:03:49.535Z,97903.09
2022-11-14T19:06:43.777Z,97905.00
2022-11-14T19:09:33.366Z,97906.59
2022-11-14T19:12:23.522Z,97910.06
2022-11-14T19:15:13.887Z,97904.66
2022-11-14T19:18:02.684Z,97911.44
2022-11-14T19:21:00.354Z,97901.75
2022-11-14T19:23:51.454Z,97912.22
2022-11-14T19:26:40.024Z,97911.78
2022-11-14T19:29:28.784Z,97917.00
2022-11-14T19:32:17.392Z,97922.59
2022-11-14T19:35:06.352Z,97911.91
2022-11-14T19:37:54.936Z,97925.88
2022-11-14T19:40:50.892Z,97921.13
2022-11-14T19:43:41.262Z,97931.50
2022-11-14T19:46:30.393Z,97924.41
2022-11-14T19:49:19.395Z,97926.97
2022-11-14T19:52:08.418Z,97932.72
2022-11-14T19:54:57.188Z,97935.63
2022-11-14T19:57:48.601Z,97935.03
2022-11-14T20:00:37.937Z,97941.41
2022-11-14T20:03:26.641Z,97931.97
2022-11-14T20:06:22.145Z,97931.03
2022-11-14T20:09:13.600Z,97933.59
2022-11-14T20:12:02.013Z,97931.06
2022-11-14T20:14:53.217Z,97930.13
2022-11-14T20:17:41.853Z,97934.88
2022-11-14T20:20:30.522Z,97930.47
2022-11-14T20:23:19.348Z,97934.59
2022-11-14T20:26:11.379Z,97936.19
2022-11-14T20:29:01.829Z,97934.28
2022-11-14T20:31:53.168Z,97935.53
2022-11-14T20:34:41.794Z,97930.81
2022-11-14T20:37:30.663Z,97932.72
2022-11-14T20:40:20.162Z,97930.19
2022-11-14T20:43:09.102Z,97931.75
2022-11-14T20:45:59.711Z,97933.94
2022-11-14T20:48:52.568Z,97928.88
2022-11-14T20:51:41.589Z,97938.03
2022-11-14T20:54:30.328Z,97933.13
2022-11-14T20:57:18.621Z,97933.41
2022-11-14T21:00:08.603Z,97922.28
2022-11-14T21:02:57.111Z,97928.78
2022-11-14T21:05:49.175Z,97931.59
2022-11-14T21:08:39.791Z,97932.69
2022-11-14T21:11:28.534Z,97932.31
2022-11-14T21:14:17.500Z,97923.84
2022-11-14T21:17:06.143Z,97926.59
2022-11-14T21:19:54.796Z,97924.72
2022-11-14T21:22:45.892Z,97929.41
2022-11-14T21:25:35.490Z,97928.06
2022-11-14T21:28:24.307Z,97931.16
2022-11-14T21:31:18.508Z,97921.00
2022-11-14T21:34:10.023Z,97920.13
2022-11-14T21:36:59.782Z,97919.53
2022-11-14T21:39:51.150Z,97922.66
2022-11-14T21:42:39.858Z,97909.28
2022-11-14T21:45:28.352Z,97916.38
2022-11-14T21:48:16.903Z,97918.00
2022-11-14T21:51:07.436Z,97914.31
2022-11-14T21:53:58.715Z,97916.91
2022-11-14T21:56:49.953Z,97919.44
2022-11-14T21:59:38.741Z,97924.22
2022-11-14T22:02:39.605Z,97923.16
2022-11-14T22:05:28.133Z,97921.81
2022-11-14T22:08:18.370Z,97921.84
2022-11-14T22:11:07.017Z,97927.78
2022-11-14T22:13:58.678Z,97924.34
2022-11-14T22:16:47.385Z,97933.53
2022-11-14T22:19:36.077Z,97934.38
2022-11-14T22:22:24.703Z,97928.25
2022-11-14T22:25:13.736Z,97927.94
2022-11-14T22:28:02.200Z,97922.25
2022-11-14T22:31:08.165Z,97925.47
2022-11-14T22:33:59.760Z,97925.25
2022-11-14T22:36:48.255Z,97912.53
2022-11-14T22:39:36.869Z,97916.06
2022-11-14T22:42:25.289Z,97927.03
2022-11-14T22:45:14.428Z,97920.91
2022-11-14T22:48:06.111Z,97920.50
2022-11-14T22:51:03.373Z,97927.53
2022-11-14T22:53:54.254Z,97921.50
2022-11-14T22:56:42.817Z,97928.00
2022-11-14T22:59:31.649Z,97923.38
2022-11-14T23:02:20.338Z,97920.50
2022-11-14T23:05:12.346Z,97925.88
2022-11-14T23:08:00.834Z,97922.19
2022-11-14T23:10:50.611Z,97919.75
2022-11-14T23:13:44.227Z,97929.09
2022-11-14T23:16:36.265Z,97919.44
2022-11-14T23:19:25.485Z,97920.78
2022-11-14T23:22:16.853Z,97922.16
2022-11-14T23:25:05.686Z,97923.00
2022-11-14T23:27:54.655Z,97914.72
2022-11-14T23:30:43.536Z,97905.81
2022-11-14T23:33:33.438Z,97915.81
2022-11-14T23:36:22.998Z,97908.28
2022-11-14T23:39:14.207Z,97911.63
2022-11-14T23:42:02.671Z,97905.22
2022-11-14T23:44:51.385Z,97906.44
2022-11-14T23:47:39.826Z,97901.72
2022-11-14T23:50:28.561Z,97901.00
2022-11-14T23:53:17.129Z,97892.00
2022-11-14T23:56:09.250Z,97883.75
2022-11-14T23:58:57.909Z,97882.13
